Bartonsville, Vermont
Current Conditions -  °F | °C
As of 2:54 AM on Sunday 21 Dec 2014 (Local Time) from KVSF Reporting Station
Overcast Overcast  
Wind Chill: -4°   Ceiling: 2400
Heat Index: -4°   Visibility: 8mi
Dew Point: -7°   Wind: 0mph
Humidity: 81%   Direction: NA
Pressure: 30.3"   Gusts: NA
Location:  43.2811°N, 72.6352°W
Report Text: KVSF 210754Z AUTO 00000KT 8SM OVC024 M04/M07 A3030 RMK AO2 SLP268 T10391067 TSNO
Loading
Personal Weather Stations






























Interactive Weather Map New forecast layout! Learn more

10-Day Weather Forecast

Advertisements
Track Severe Weather on mobile